createdAt,value
2022-10-11T00:01:34.784Z,31.17
2022-10-11T00:04:04.089Z,34.33
2022-10-11T00:06:33.840Z,33.72
2022-10-11T00:09:03.094Z,30.92
2022-10-11T00:11:32.878Z,33.33
2022-10-11T00:14:03.578Z,32.40
2022-10-11T00:16:32.947Z,30.85
2022-10-11T00:19:02.437Z,32.28
2022-10-11T00:21:31.858Z,33.53
2022-10-11T00:24:01.067Z,33.28
2022-10-11T00:26:30.624Z,34.83
2022-10-11T00:29:02.607Z,33.00
2022-10-11T00:31:35.490Z,30.73
2022-10-11T00:34:05.415Z,32.28
2022-10-11T00:36:34.695Z,29.63
2022-10-11T00:39:05.092Z,33.78
2022-10-11T00:41:34.426Z,29.73
2022-10-11T00:44:20.974Z,29.98
2022-10-11T00:46:56.219Z,29.80
2022-10-11T00:49:35.032Z,31.35
2022-10-11T00:52:08.592Z,28.65
2022-10-11T00:54:42.631Z,28.70
2022-10-11T00:57:19.014Z,26.80
2022-10-11T00:59:53.993Z,36.90
2022-10-11T01:02:25.018Z,32.13
2022-10-11T01:05:18.024Z,31.30
2022-10-11T01:07:51.470Z,30.70
2022-10-11T01:10:20.948Z,29.05
2022-10-11T01:13:01.421Z,29.38
2022-10-11T01:15:39.632Z,32.50
2022-10-11T01:18:16.337Z,34.50
2022-10-11T01:21:02.063Z,31.58
2022-10-11T01:24:19.387Z,31.50
2022-10-11T01:27:36.692Z,27.50
2022-10-11T01:30:23.657Z,27.58
2022-10-11T01:33:08.441Z,26.65
2022-10-11T01:35:47.571Z,26.15
2022-10-11T01:38:25.991Z,35.28
2022-10-11T01:41:01.192Z,30.95
2022-10-11T01:43:31.476Z,31.63
2022-10-11T01:46:03.656Z,32.63
2022-10-11T01:48:33.181Z,31.45
2022-10-11T01:51:04.627Z,31.15
2022-10-11T01:53:53.169Z,30.50
2022-10-11T01:56:36.005Z,33.15
2022-10-11T01:59:29.573Z,30.90
2022-10-11T02:02:11.622Z,23.77
2022-10-11T02:04:50.557Z,30.20
2022-10-11T02:07:26.681Z,30.38
2022-10-11T02:10:02.086Z,30.05
2022-10-11T02:12:38.860Z,32.75
2022-10-11T02:15:12.902Z,33.67
2022-10-11T02:17:48.781Z,30.88
2022-10-11T02:20:22.223Z,27.58
2022-10-11T02:22:58.059Z,28.02
2022-10-11T02:25:31.543Z,25.58
2022-10-11T02:28:05.079Z,23.98
2022-10-11T02:30:35.324Z,20.17
2022-10-11T02:33:09.630Z,24.77
2022-10-11T02:35:44.989Z,20.95
2022-10-11T02:38:22.083Z,22.25
2022-10-11T02:40:59.457Z,20.45
2022-10-11T02:43:36.706Z,19.90
2022-10-11T02:46:08.833Z,25.05
2022-10-11T02:48:40.500Z,25.70
2022-10-11T02:51:14.485Z,27.63
2022-10-11T02:53:43.876Z,24.08
2022-10-11T02:56:13.112Z,25.15
2022-10-11T02:58:42.342Z,26.77
2022-10-11T03:01:11.710Z,27.85
2022-10-11T03:03:42.379Z,21.95
2022-10-11T03:06:11.585Z,21.98
2022-10-11T03:08:40.811Z,27.02
2022-10-11T03:11:10.164Z,25.00
2022-10-11T03:13:39.388Z,24.38
2022-10-11T03:16:08.917Z,27.17
2022-10-11T03:18:38.293Z,20.67
2022-10-11T03:21:08.975Z,23.52
2022-10-11T03:23:38.360Z,34.45
2022-10-11T03:26:08.362Z,23.20
2022-10-11T03:28:38.154Z,25.42
2022-10-11T03:31:07.638Z,25.92
2022-10-11T03:33:36.948Z,22.30
2022-10-11T03:36:09.693Z,26.58
2022-10-11T03:41:08.292Z,24.20
2022-10-11T03:43:37.791Z,23.60
2022-10-11T03:46:07.988Z,20.83
2022-10-11T03:48:37.830Z,21.27
2022-10-11T03:51:08.814Z,24.83
2022-10-11T03:53:38.172Z,20.05
2022-10-11T03:56:08.694Z,20.73
2022-10-11T03:58:38.052Z,22.85
2022-10-11T04:01:07.278Z,22.65
2022-10-11T04:03:36.609Z,25.27
2022-10-11T04:06:07.256Z,19.88
2022-10-11T04:08:38.305Z,21.50
2022-10-11T04:11:07.581Z,20.15
2022-10-11T04:13:37.346Z,21.10
2022-10-11T04:16:08.750Z,23.90
2022-10-11T04:18:38.290Z,25.27
2022-10-11T04:21:08.073Z,19.65
2022-10-11T04:23:38.667Z,18.88
2022-10-11T04:26:10.256Z,19.55
2022-10-11T04:28:39.721Z,15.32
2022-10-11T04:31:09.020Z,22.10
2022-10-11T04:33:38.280Z,16.63
2022-10-11T04:36:08.619Z,16.25
2022-10-11T04:38:39.872Z,18.95
2022-10-11T04:41:10.609Z,19.17
2022-10-11T04:43:39.947Z,20.02
2022-10-11T04:46:10.716Z,17.77
2022-10-11T04:48:40.520Z,19.65
2022-10-11T04:51:09.793Z,19.25
2022-10-11T04:53:40.393Z,16.27
2022-10-11T04:56:11.995Z,17.55
2022-10-11T04:58:42.121Z,16.30
2022-10-11T05:01:12.460Z,17.27
2022-10-11T05:03:41.727Z,21.23
2022-10-11T05:06:12.271Z,16.60
2022-10-11T05:08:43.258Z,17.35
2022-10-11T05:11:15.998Z,19.45
2022-10-11T05:13:46.434Z,18.70
2022-10-11T05:16:16.894Z,21.73
2022-10-11T05:18:46.734Z,16.05
2022-10-11T05:21:19.515Z,17.73
2022-10-11T05:23:52.267Z,22.52
2022-10-11T05:28:51.681Z,19.70
2022-10-11T05:31:21.234Z,29.40
2022-10-11T05:33:50.655Z,16.25
2022-10-11T05:36:20.179Z,18.15
2022-10-11T05:38:50.920Z,25.33
2022-10-11T05:41:20.463Z,21.30
2022-10-11T05:43:49.693Z,26.92
2022-10-11T05:46:18.975Z,20.40
2022-10-11T05:48:48.170Z,18.98
2022-10-11T05:51:17.413Z,22.35
2022-10-11T05:53:46.937Z,19.70
2022-10-11T05:56:23.343Z,24.52
2022-10-11T05:58:52.923Z,21.00
2022-10-11T06:01:24.529Z,23.48
2022-10-11T06:03:54.329Z,19.50
2022-10-11T06:06:23.767Z,28.73
2022-10-11T06:08:52.959Z,20.50
2022-10-11T06:11:27.444Z,20.63
2022-10-11T06:13:59.241Z,24.27
2022-10-11T06:16:29.295Z,19.15
2022-10-11T06:18:59.140Z,25.50
2022-10-11T06:21:28.563Z,23.35
2022-10-11T06:24:01.875Z,19.17
2022-10-11T06:26:32.810Z,19.95
2022-10-11T06:29:02.173Z,17.42
2022-10-11T06:31:31.453Z,19.08
2022-10-11T06:34:01.163Z,21.13
2022-10-11T06:36:30.368Z,21.23
2022-10-11T06:39:01.567Z,18.55
2022-10-11T06:41:32.831Z,19.80
2022-10-11T06:44:02.124Z,17.58
2022-10-11T06:46:33.480Z,19.73
2022-10-11T06:49:02.829Z,25.75
2022-10-11T06:51:32.655Z,19.42
2022-10-11T06:54:02.964Z,17.10
2022-10-11T06:56:33.808Z,17.45
2022-10-11T06:59:03.637Z,17.42
2022-10-11T07:01:33.478Z,28.67
2022-10-11T07:04:03.144Z,18.02
2022-10-11T07:06:33.317Z,23.92
2022-10-11T07:09:02.905Z,25.48
2022-10-11T07:11:33.546Z,21.60
2022-10-11T07:14:07.833Z,21.17
2022-10-11T07:16:38.207Z,18.25
2022-10-11T07:19:09.206Z,20.20
2022-10-11T07:21:38.495Z,16.52
2022-10-11T07:24:08.447Z,19.70
2022-10-11T07:26:39.471Z,28.63
2022-10-11T07:29:11.592Z,24.23
2022-10-11T07:31:43.237Z,17.80
2022-10-11T07:34:13.029Z,27.80
2022-10-11T07:36:42.241Z,21.20
2022-10-11T07:39:11.686Z,21.48
2022-10-11T07:41:45.886Z,22.48
2022-10-11T07:44:15.602Z,20.88
2022-10-11T07:46:44.847Z,24.17
2022-10-11T07:49:14.096Z,17.35
2022-10-11T07:51:43.338Z,25.85
2022-10-11T07:54:12.654Z,22.50
2022-10-11T07:56:43.281Z,19.95
2022-10-11T07:59:12.848Z,21.48
2022-10-11T08:01:42.221Z,23.75
2022-10-11T08:04:12.132Z,25.23
2022-10-11T08:06:41.396Z,21.38
2022-10-11T08:09:10.815Z,28.10
2022-10-11T08:11:40.765Z,23.80
2022-10-11T08:14:11.879Z,28.88
2022-10-11T08:16:41.801Z,22.70
2022-10-11T08:19:12.548Z,25.15
2022-10-11T08:21:42.550Z,28.58
2022-10-11T08:24:14.149Z,38.25
2022-10-11T08:26:43.614Z,34.78
2022-10-11T08:29:14.605Z,57.53
2022-10-11T08:31:44.680Z,26.88
2022-10-11T08:34:14.596Z,40.67
2022-10-11T08:36:43.938Z,38.28
2022-10-11T08:39:13.201Z,23.05
2022-10-11T08:41:47.866Z,31.77
2022-10-11T08:44:58.340Z,52.30
2022-10-11T08:47:31.808Z,35.97
2022-10-11T08:50:01.946Z,29.80
2022-10-11T08:52:42.018Z,31.58
2022-10-11T08:55:22.519Z,24.42
2022-10-11T08:57:56.270Z,25.60
2022-10-11T09:00:31.893Z,53.08
2022-10-11T09:03:12.240Z,21.25
2022-10-11T09:05:58.842Z,30.55
2022-10-11T09:08:38.778Z,29.50
2022-10-11T09:11:17.012Z,23.27
2022-10-11T09:14:27.076Z,27.85
2022-10-11T09:17:09.759Z,22.27
2022-10-11T09:20:25.880Z,30.85
2022-10-11T09:23:00.933Z,36.45
2022-10-11T09:25:34.899Z,24.02
2022-10-11T09:28:23.985Z,22.90
2022-10-11T09:30:56.117Z,22.50
2022-10-11T09:33:35.413Z,23.10
2022-10-11T09:36:20.881Z,22.25
2022-10-11T09:38:56.153Z,111.32
2022-10-11T09:41:34.674Z,36.42
2022-10-11T09:44:03.861Z,31.17
2022-10-11T09:46:37.845Z,27.17
2022-10-11T09:49:14.135Z,36.17
2022-10-11T09:51:49.359Z,28.75
2022-10-11T09:54:27.308Z,78.55
2022-10-11T09:56:56.651Z,30.85
2022-10-11T09:59:31.504Z,27.45
2022-10-11T10:02:21.952Z,24.70
2022-10-11T10:05:15.477Z,32.50
2022-10-11T10:08:08.180Z,28.83
2022-10-11T10:10:40.647Z,28.08
2022-10-11T10:13:23.096Z,35.72
2022-10-11T10:15:55.094Z,40.05
2022-10-11T10:18:28.745Z,32.20
2022-10-11T10:21:00.753Z,36.63
2022-10-11T10:23:33.062Z,49.72
2022-10-11T10:26:16.113Z,40.15
2022-10-11T10:29:05.013Z,77.35
2022-10-11T10:32:01.882Z,35.13
2022-10-11T10:34:34.595Z,34.75
2022-10-11T10:37:16.983Z,36.13
2022-10-11T10:39:52.956Z,33.92
2022-10-11T10:42:22.664Z,38.75
2022-10-11T10:44:55.199Z,69.47
2022-10-11T10:47:53.519Z,41.90
2022-10-11T10:50:28.664Z,64.22
2022-10-11T10:53:17.151Z,30.23
2022-10-11T10:55:51.251Z,32.03
2022-10-11T10:58:47.075Z,41.70
2022-10-11T11:01:22.419Z,35.17
2022-10-11T11:04:01.422Z,32.55
2022-10-11T11:06:46.630Z,59.03
2022-10-11T11:09:36.532Z,46.88
2022-10-11T11:12:25.171Z,63.58
2022-10-11T11:15:03.742Z,55.88
2022-10-11T11:17:52.001Z,46.40
2022-10-11T11:20:34.819Z,47.72
2022-10-11T11:25:49.321Z,68.90
2022-10-11T11:28:39.295Z,71.78
2022-10-11T11:31:23.457Z,109.70
2022-10-11T11:34:05.540Z,164.63
2022-10-11T11:36:46.543Z,224.02
2022-10-11T11:39:20.485Z,261.08
2022-10-11T11:41:56.625Z,297.02
2022-10-11T11:44:31.967Z,321.70
2022-10-11T11:47:05.985Z,368.00
2022-10-11T11:49:39.372Z,299.52
2022-10-11T11:52:14.523Z,386.80
2022-10-11T11:54:58.990Z,269.33
2022-10-11T11:57:52.647Z,207.70
2022-10-11T12:00:24.728Z,190.25
2022-10-11T12:02:58.748Z,179.02
2022-10-11T12:05:32.155Z,99.65
2022-10-11T12:08:04.209Z,142.50
2022-10-11T12:10:39.991Z,120.55
2022-10-11T12:13:22.111Z,106.28
2022-10-11T12:16:10.966Z,142.20
2022-10-11T12:18:53.602Z,135.15
2022-10-11T12:21:32.800Z,105.65
2022-10-11T12:24:11.244Z,68.72
2022-10-11T12:26:46.270Z,88.07
2022-10-11T12:29:49.303Z,76.18
2022-10-11T12:32:52.906Z,56.88
2022-10-11T12:36:07.267Z,28.83
2022-10-11T12:38:39.837Z,44.63
2022-10-11T12:41:53.829Z,36.83
2022-10-11T12:44:27.274Z,29.63
2022-10-11T12:47:25.523Z,43.65
2022-10-11T12:50:20.982Z,44.63
2022-10-11T12:53:02.068Z,30.42
2022-10-11T12:55:50.436Z,96.95
2022-10-11T12:58:38.313Z,41.17
2022-10-11T13:01:23.320Z,73.63
2022-10-11T13:04:12.246Z,50.42
2022-10-11T13:06:49.930Z,66.63
2022-10-11T13:09:29.905Z,72.65
2022-10-11T13:12:06.478Z,57.75
2022-10-11T13:14:39.758Z,53.75
2022-10-11T13:17:20.718Z,80.40
2022-10-11T13:20:01.918Z,96.43
2022-10-11T13:22:35.290Z,42.75
2022-10-11T13:25:07.536Z,37.53
2022-10-11T13:27:39.356Z,30.58
2022-10-11T13:30:17.893Z,33.70
2022-10-11T13:32:48.876Z,28.60
2022-10-11T13:35:25.229Z,27.83
2022-10-11T13:37:54.398Z,40.80
2022-10-11T13:40:24.505Z,16.30
2022-10-11T13:42:55.472Z,33.60
2022-10-11T13:45:27.774Z,23.58
2022-10-11T13:47:58.925Z,28.13
2022-10-11T13:50:32.454Z,48.10
2022-10-11T13:53:04.607Z,30.83
2022-10-11T13:55:37.888Z,21.92
2022-10-11T13:58:18.702Z,22.13
2022-10-11T14:00:56.332Z,21.42
2022-10-11T14:03:38.752Z,17.38
2022-10-11T14:06:09.212Z,19.25
2022-10-11T14:08:44.360Z,34.00
2022-10-11T14:11:15.022Z,80.70
2022-10-11T14:13:45.967Z,39.75
2022-10-11T14:16:31.181Z,17.20
2022-10-11T14:19:11.698Z,24.30
2022-10-11T14:21:52.634Z,22.88
2022-10-11T14:24:24.000Z,18.13
2022-10-11T14:26:56.338Z,20.55
2022-10-11T14:29:29.009Z,24.08
2022-10-11T14:34:32.332Z,23.98
2022-10-11T14:37:01.920Z,22.80
2022-10-11T14:39:33.684Z,19.50
2022-10-11T14:42:02.924Z,22.63
2022-10-11T14:44:32.178Z,22.02
2022-10-11T14:47:01.442Z,23.33
2022-10-11T14:49:33.952Z,35.22
2022-10-11T14:52:06.448Z,33.25
2022-10-11T14:54:35.703Z,40.53
2022-10-11T14:57:05.865Z,21.00
2022-10-11T14:59:37.950Z,27.35
2022-10-11T15:02:09.679Z,27.70
2022-10-11T15:04:40.298Z,64.77
2022-10-11T15:07:09.443Z,26.02
2022-10-11T15:09:38.575Z,28.15
2022-10-11T15:12:07.883Z,20.90
2022-10-11T15:14:37.022Z,20.10
2022-10-11T15:17:06.239Z,28.27
2022-10-11T15:19:35.479Z,25.08
2022-10-11T15:22:06.160Z,21.60
2022-10-11T15:24:35.451Z,25.58
2022-10-11T15:27:05.147Z,21.85
2022-10-11T15:29:35.086Z,24.10
2022-10-11T15:32:04.563Z,26.02
2022-10-11T15:34:33.713Z,25.60
2022-10-11T15:37:02.922Z,31.77
2022-10-11T15:39:33.958Z,31.58
2022-10-11T15:42:03.158Z,27.65
2022-10-11T15:44:32.312Z,27.77
2022-10-11T15:47:01.446Z,39.10
2022-10-11T15:49:30.577Z,24.92
2022-10-11T15:51:59.741Z,34.08
2022-10-11T15:54:28.850Z,31.08
2022-10-11T15:56:59.425Z,32.47
2022-10-11T15:59:28.659Z,30.38
2022-10-11T16:01:58.277Z,31.80
2022-10-11T16:04:27.531Z,27.60
2022-10-11T16:06:56.766Z,28.85
2022-10-11T16:09:25.905Z,33.78
2022-10-11T16:11:55.082Z,31.63
2022-10-11T16:14:25.608Z,30.58
2022-10-11T16:16:54.733Z,22.83
2022-10-11T16:19:23.906Z,31.05
2022-10-11T16:21:53.019Z,26.08
2022-10-11T16:24:22.159Z,28.55
2022-10-11T16:26:51.326Z,29.38
2022-10-11T16:29:20.484Z,20.75
2022-10-11T16:31:51.047Z,24.17
2022-10-11T16:34:20.270Z,27.65
2022-10-11T16:36:49.578Z,27.35
2022-10-11T16:39:19.913Z,25.52
2022-10-11T16:41:49.198Z,26.95
2022-10-11T16:44:21.159Z,22.73
2022-10-11T16:46:52.351Z,24.63
2022-10-11T16:49:25.644Z,32.13
2022-10-11T16:51:59.255Z,32.20
2022-10-11T16:54:30.541Z,21.35
2022-10-11T16:57:01.017Z,37.55
2022-10-11T16:59:30.230Z,24.90
2022-10-11T17:02:01.055Z,21.80
2022-10-11T17:04:30.206Z,22.30
2022-10-11T17:06:59.515Z,41.65
2022-10-11T17:09:29.375Z,32.88
2022-10-11T17:11:58.441Z,44.00
2022-10-11T17:14:28.546Z,41.72
2022-10-11T17:16:59.123Z,41.97
2022-10-11T17:19:28.533Z,26.02
2022-10-11T17:21:58.018Z,19.88
2022-10-11T17:24:27.982Z,46.05
2022-10-11T17:26:57.409Z,23.63
2022-10-11T17:29:26.889Z,17.92
2022-10-11T17:31:57.008Z,77.07
2022-10-11T17:34:27.613Z,31.00
2022-10-11T17:36:56.757Z,23.55
2022-10-11T17:39:26.638Z,19.38
2022-10-11T17:41:55.847Z,20.65
2022-10-11T17:44:24.940Z,22.85
2022-10-11T17:46:54.169Z,22.13
2022-10-11T17:49:23.329Z,24.42
2022-10-11T17:51:56.643Z,28.30
2022-10-11T17:54:26.805Z,24.83
2022-10-11T17:56:56.057Z,23.83
2022-10-11T17:59:27.611Z,31.02
2022-10-11T18:01:56.816Z,32.70
2022-10-11T18:04:29.807Z,21.33
2022-10-11T18:07:00.500Z,31.02
2022-10-11T18:09:29.776Z,24.98
2022-10-11T18:11:58.957Z,55.90
2022-10-11T18:14:28.258Z,22.02
2022-10-11T18:16:57.788Z,19.50
2022-10-11T18:19:26.967Z,18.15
2022-10-11T18:21:56.132Z,22.90
2022-10-11T18:24:26.774Z,22.65
2022-10-11T18:26:56.005Z,35.33
2022-10-11T18:29:25.157Z,38.67
2022-10-11T18:31:54.499Z,31.67
2022-10-11T18:34:23.691Z,28.67
2022-10-11T18:36:52.948Z,28.45
2022-10-11T18:39:22.382Z,26.30
2022-10-11T18:41:52.941Z,33.28
2022-10-11T18:44:22.164Z,24.67
2022-10-11T18:46:51.939Z,26.38
2022-10-11T18:49:21.305Z,21.33
2022-10-11T18:51:50.627Z,25.42
2022-10-11T18:54:21.077Z,22.48
2022-10-11T18:56:52.279Z,47.17
2022-10-11T18:59:21.518Z,25.15
2022-10-11T19:01:52.574Z,24.30
2022-10-11T19:04:22.322Z,38.05
2022-10-11T19:06:53.437Z,21.20
2022-10-11T19:09:24.917Z,30.48
2022-10-11T19:11:58.102Z,71.50
2022-10-11T19:14:30.459Z,28.05
2022-10-11T19:16:59.804Z,26.33
2022-10-11T19:19:30.940Z,47.50
2022-10-11T19:22:00.811Z,44.80
2022-10-11T19:24:32.377Z,30.58
2022-10-11T19:27:03.291Z,29.00
2022-10-11T19:29:34.498Z,25.92
2022-10-11T19:32:04.643Z,18.85
2022-10-11T19:34:33.956Z,18.88
2022-10-11T19:37:03.450Z,19.38
2022-10-11T19:39:33.493Z,34.55
2022-10-11T19:42:05.091Z,20.15
2022-10-11T19:44:38.700Z,21.67
2022-10-11T19:47:10.151Z,41.60
2022-10-11T19:49:39.351Z,21.52
2022-10-11T19:52:09.613Z,27.95
2022-10-11T19:54:38.879Z,20.08
2022-10-11T19:57:09.958Z,22.35
2022-10-11T19:59:39.348Z,23.35
2022-10-11T20:02:08.498Z,17.27
2022-10-11T20:04:53.533Z,21.48
2022-10-11T20:07:23.568Z,17.23
2022-10-11T20:09:53.259Z,19.88
2022-10-11T20:12:24.315Z,28.95
2022-10-11T20:14:53.890Z,17.10
2022-10-11T20:17:43.097Z,17.50
2022-10-11T20:20:12.746Z,18.65
2022-10-11T20:22:42.061Z,20.08
2022-10-11T20:25:11.822Z,16.67
2022-10-11T20:27:43.932Z,18.85
2022-10-11T20:30:14.996Z,18.85
2022-10-11T20:32:44.245Z,22.35
2022-10-11T20:35:13.609Z,19.58
2022-10-11T20:37:42.926Z,22.08
2022-10-11T20:40:14.430Z,20.15
2022-10-11T20:42:45.014Z,19.48
2022-10-11T20:45:14.588Z,70.80
2022-10-11T20:47:44.012Z,20.25
2022-10-11T20:50:13.271Z,17.52
2022-10-11T20:52:42.474Z,19.25
2022-10-11T20:55:11.704Z,18.80
2022-10-11T20:57:40.943Z,19.80
2022-10-11T21:00:13.557Z,17.83
2022-10-11T21:05:11.922Z,16.70
2022-10-11T21:07:41.379Z,19.63
2022-10-11T21:10:10.602Z,24.55
2022-10-11T21:12:39.902Z,25.50
2022-10-11T21:15:11.168Z,17.75
2022-10-11T21:17:40.370Z,20.90
2022-10-11T21:20:11.040Z,26.30
2022-10-11T21:22:40.646Z,34.03
2022-10-11T21:25:09.795Z,19.00
2022-10-11T21:27:38.909Z,21.38
2022-10-11T21:30:11.295Z,19.88
2022-10-11T21:32:40.470Z,20.23
2022-10-11T21:35:09.602Z,16.60
2022-10-11T21:37:38.861Z,20.30
2022-10-11T21:40:09.139Z,22.42
2022-10-11T21:42:38.809Z,172.38
2022-10-11T21:45:10.234Z,102.00
2022-10-11T21:47:39.732Z,24.85
2022-10-11T21:50:09.597Z,35.58
2022-10-11T21:52:38.880Z,56.50
2022-10-11T21:55:08.332Z,94.75
2022-10-11T21:57:37.584Z,38.55
2022-10-11T22:00:11.383Z,63.90
2022-10-11T22:02:43.268Z,22.25
2022-10-11T22:05:12.536Z,60.53
2022-10-11T22:07:41.846Z,25.58
2022-10-11T22:10:10.989Z,17.65
2022-10-11T22:12:40.217Z,55.10
2022-10-11T22:15:12.013Z,51.65
2022-10-11T22:17:41.192Z,22.63
2022-10-11T22:20:11.516Z,150.85
2022-10-11T22:22:40.862Z,21.38
2022-10-11T22:25:10.762Z,38.38
2022-10-11T22:27:39.992Z,29.42
2022-10-11T22:30:12.408Z,18.70
2022-10-11T22:32:42.088Z,20.23
2022-10-11T22:35:11.442Z,43.80
2022-10-11T22:37:40.594Z,96.93
2022-10-11T22:40:10.903Z,27.02
2022-10-11T22:42:40.081Z,28.67
2022-10-11T22:45:11.559Z,40.70
2022-10-11T22:47:40.911Z,83.63
2022-10-11T22:50:10.866Z,100.13
2022-10-11T22:52:41.372Z,117.18
2022-10-11T22:55:11.012Z,28.00
2022-10-11T22:57:40.229Z,96.70
2022-10-11T23:00:12.655Z,79.43
2022-10-11T23:02:41.898Z,76.63
2022-10-11T23:05:11.124Z,90.43
2022-10-11T23:07:40.442Z,31.42
2022-10-11T23:10:10.927Z,33.97
2022-10-11T23:12:40.268Z,32.70
2022-10-11T23:15:12.988Z,41.53
2022-10-11T23:20:12.804Z,30.58
2022-10-11T23:22:42.008Z,32.08
2022-10-11T23:25:11.715Z,35.90
2022-10-11T23:27:40.954Z,36.80
2022-10-11T23:30:14.500Z,38.08
2022-10-11T23:32:43.648Z,59.38
2022-10-11T23:35:12.932Z,39.25
2022-10-11T23:37:42.118Z,37.65
2022-10-11T23:40:12.156Z,36.92
2022-10-11T23:42:41.453Z,40.95
2022-10-11T23:45:12.806Z,39.22
2022-10-11T23:47:42.094Z,43.92
2022-10-11T23:50:11.797Z,41.85
2022-10-11T23:52:40.961Z,41.72
2022-10-11T23:55:11.101Z,39.88
2022-10-11T23:57:40.563Z,156.43
